Flight Track Log - Related Links

Times and Time Zones

All times are in EDT time to prevent confusion due to time zone crossing. See the N56LW flight status page for this flight to view local times or setup timezone preferences in your user account.

Time Position Orientation Groundspeed Altitude Reporting Facility
EDT Latitude Longitude Course Direction KTS MPH feet Rate Location/Type
Sun 04:50:00 PM 30.2694 -85.9305 103° East  Level FlightAware Approximate
Sun 04:51:00 PM 30.2421 -85.8430 111° Southeast  Level FlightAware Approximate
Sun 04:51:31 PM 30.2725 -85.9086 102° East 341 392 18,400  Level Jacksonville Center
Sun 04:52:00 PM 30.2194 -85.7539 104° East  Level FlightAware Approximate
Sun 04:52:31 PM 30.2478 -85.8092 106° East 340 391 20,300  Level Jacksonville Center
Sun 04:53:00 PM 30.1994 -85.6637 104° East  Level FlightAware Approximate
Sun 04:53:31 PM 30.2186 -85.7097 109° East 335 386 22,200  Level Jacksonville Center
Sun 04:54:00 PM 30.1793 -85.5736 104° East  Level FlightAware Approximate
Sun 04:54:31 PM 30.1939 -85.6033 105° East 335 386 22,800  Level Jacksonville Center
Sun 04:55:00 PM 30.1606 -85.4831 102° East  Level FlightAware Approximate
Sun 04:55:31 PM 30.1714 -85.4850 102° East 345 397 24,400  Level Jacksonville Center
Sun 04:56:31 PM 30.1486 -85.3644 102° East 350 403 26,400 1,750 Climbing Jacksonville Center
Sun 04:57:31 PM 30.1256 -85.2581 104° East 350 403 27,900 1,100 Climbing Jacksonville Center
Sun 04:58:31 PM 30.1006 -85.1469 105° East 350 403 28,600 500 Climbing Jacksonville Center
Sun 04:59:31 PM 30.0753 -85.0264 104° East 363 418 28,900 200 Climbing Jacksonville Center
Sun 05:00:31 PM 30.0481 -84.9058 105° East 380 437 29,000 50 Climbing Jacksonville Center
Sun 05:01:31 PM 30.0189 -84.7781 105° East 393 452 29,000  Level Jacksonville Center
Sun 05:02:31 PM 29.9914 -84.6503 104° East 398 458 29,000  Level Jacksonville Center
Sun 05:03:31 PM 29.9617 -84.5228 105° East 398 458 29,000  Level Jacksonville Center
Sun 05:04:31 PM 29.9342 -84.3978 104° East 398 458 29,000  Level Jacksonville Center
Sun 05:05:31 PM 29.8958 -84.2750 110° East 398 458 29,000 -100 Level Jacksonville Center
Sun 05:06:31 PM 29.8592 -84.1761 113° Southeast 403 464 28,800 -650 Descending Jacksonville Center
Sun 05:07:31 PM 29.8167 -84.0464 111° Southeast 403 464 27,700 -1,050 Descending Jacksonville Center
Sun 05:08:31 PM 29.7758 -83.9264 111° Southeast 403 464 26,700 -850 Descending Jacksonville Center
Sun 05:09:31 PM 29.7331 -83.8064 112° Southeast 408 470 26,000 -950 Descending Jacksonville Center
Sun 05:10:31 PM 29.6878 -83.6767 112° Southeast 408 470 24,800 -1,150 Descending Jacksonville Center
Sun 05:11:31 PM 29.6467 -83.5592 112° Southeast 397 457 23,700 -1,050 Descending Jacksonville Center
Sun 05:12:31 PM 29.6078 -83.4444 111° Southeast 392 451 22,700 -950 Descending Jacksonville Center
Sun 05:13:31 PM 29.5683 -83.3344 112° Southeast 387 445 21,800 -850 Descending Jacksonville Center
Sun 05:14:31 PM 29.5311 -83.2292 112° Southeast 387 445 21,000 -850 Descending Jacksonville Center
Sun 05:15:31 PM 29.4917 -83.1192 112° Southeast 375 432 20,100 -1,000 Descending Jacksonville Center
Sun 05:16:31 PM 29.4503 -83.0000 112° Southeast 375 432 19,000 -550 Descending Jacksonville Center
Sun 05:17:31 PM 29.4128 -82.8925 112° Southeast 369 425 19,000  Level Jacksonville Center
Sun 05:18:31 PM 29.3750 -82.7878 112° Southeast 364 419 19,000 -400 Level Jacksonville Center
Sun 05:19:31 PM 29.3269 -82.6900 119° Southeast 353 406 18,200 -1,800 Descending Jacksonville Center
Sun 05:20:31 PM 29.2725 -82.5975 124° Southeast 353 406 15,400 -2,900 Descending Jacksonville Center
Sun 05:21:31 PM 29.2222 -82.5094 123° Southeast 341 392 12,400 -2,200 Descending Jacksonville Center
Sun 05:22:31 PM 29.1758 -82.4242 122° Southeast 325 374 11,000 -1,135 Descending Jacksonville Center
Sun 05:22:45 PM 29.1675 -82.4122 129° Southeast 306 352 11,000  Level Jacksonville Center
Sun 05:23:31 PM 29.1297 -82.3458 123° Southeast 312 359 11,000 -349 Level Jacksonville Center
Sun 05:24:11 PM 29.1003 -82.2936 123° Southeast 297 342 10,500 -800 Descending Jacksonville Center
Sun 05:24:31 PM 29.0833 -82.2653 124° Southeast 307 353 10,200 -900 Descending Jacksonville Center

Login

Don't have an account? Register now (free) for customized features, flight alerts, and more!